createdAt,value
2023-02-05T00:02:24.555Z,97746.13
2023-02-05T00:04:53.498Z,97754.53
2023-02-05T00:07:31.014Z,97746.97
2023-02-05T00:09:59.661Z,97753.72
2023-02-05T00:12:28.401Z,97757.06
2023-02-05T00:14:58.887Z,97745.31
2023-02-05T00:17:27.379Z,97750.38
2023-02-05T00:19:56.815Z,97743.66
2023-02-05T00:22:25.595Z,97742.84
2023-02-05T00:24:54.224Z,97741.16
2023-02-05T00:27:23.041Z,97737.78
2023-02-05T00:29:52.153Z,97741.97
2023-02-05T00:32:22.487Z,97745.38
2023-02-05T00:34:51.298Z,97738.63
2023-02-05T00:37:20.097Z,97752.91
2023-02-05T00:39:49.137Z,97754.53
2023-02-05T00:42:17.883Z,97758.75
2023-02-05T00:44:47.683Z,97762.91
2023-02-05T00:47:16.170Z,97760.38
2023-02-05T00:49:47.007Z,97761.22
2023-02-05T00:52:15.747Z,97769.63
2023-02-05T00:54:46.544Z,97765.41
2023-02-05T00:57:17.636Z,97765.34
2023-02-05T00:59:46.345Z,97754.47
2023-02-05T01:02:15.191Z,97757.78
2023-02-05T01:04:45.642Z,97757.78
2023-02-05T01:07:14.021Z,97755.22
2023-02-05T01:09:42.550Z,97750.19
2023-02-05T01:12:17.215Z,97757.75
2023-02-05T01:14:45.938Z,97759.41
2023-02-05T01:17:14.700Z,97756.91
2023-02-05T01:19:43.415Z,97758.56
2023-02-05T01:22:13.966Z,97767.75
2023-02-05T01:24:42.733Z,97766.94
2023-02-05T01:27:11.908Z,97769.44
2023-02-05T01:29:41.087Z,97763.63
2023-02-05T01:32:10.523Z,97767.00
2023-02-05T01:34:39.574Z,97762.81
2023-02-05T01:37:08.154Z,97768.72
2023-02-05T01:39:38.408Z,97779.63
2023-02-05T01:42:16.784Z,97780.47
2023-02-05T01:44:45.536Z,97773.78
2023-02-05T01:47:14.119Z,97767.09
2023-02-05T01:49:44.277Z,97772.94
2023-02-05T01:52:16.083Z,97772.13
2023-02-05T01:54:49.042Z,97775.47
2023-02-05T01:57:42.705Z,97776.31
2023-02-05T02:00:12.148Z,97777.19
2023-02-05T02:02:40.946Z,97774.69
2023-02-05T02:05:15.163Z,97774.66
2023-02-05T02:07:44.037Z,97777.97
2023-02-05T02:10:19.470Z,97773.81
2023-02-05T02:12:49.799Z,97782.19
2023-02-05T02:15:20.257Z,97788.91
2023-02-05T02:17:51.734Z,97789.75
2023-02-05T02:20:22.102Z,97804.84
2023-02-05T02:23:00.274Z,97813.22
2023-02-05T02:25:54.497Z,97806.53
2023-02-05T02:28:28.730Z,97813.22
2023-02-05T02:31:01.569Z,97820.75
2023-02-05T02:33:36.298Z,97826.59
2023-02-05T02:36:10.761Z,97829.94
2023-02-05T02:38:42.906Z,97831.72
2023-02-05T02:41:16.206Z,97829.19
2023-02-05T02:43:50.550Z,97830.03
2023-02-05T02:46:22.667Z,97819.94
2023-02-05T02:48:53.038Z,97829.16
2023-02-05T02:51:23.059Z,97827.50
2023-02-05T02:53:54.604Z,97820.78
2023-02-05T02:56:28.654Z,97833.34
2023-02-05T02:59:02.707Z,97832.53
2023-02-05T03:01:32.909Z,97831.72
2023-02-05T03:04:06.581Z,97830.06
2023-02-05T03:06:35.427Z,97833.44
2023-02-05T03:09:07.988Z,97831.72
2023-02-05T03:11:36.828Z,97823.41
2023-02-05T03:14:06.758Z,97824.28
2023-02-05T03:16:35.366Z,97821.78
2023-02-05T03:19:07.735Z,97822.63
2023-02-05T03:21:40.240Z,97815.09
2023-02-05T03:24:09.808Z,97822.66
2023-02-05T03:26:39.424Z,97825.22
2023-02-05T03:29:10.763Z,97828.59
2023-02-05T03:31:47.266Z,97822.72
2023-02-05T03:34:26.002Z,97823.53
2023-02-05T03:37:01.680Z,97825.22
2023-02-05T03:39:40.845Z,97816.81
2023-02-05T03:42:17.359Z,97821.06
2023-02-05T03:45:04.916Z,97819.38
2023-02-05T03:47:39.978Z,97815.19
2023-02-05T03:50:16.772Z,97806.81
2023-02-05T03:52:50.051Z,97803.44
2023-02-05T03:55:21.583Z,97813.53
2023-02-05T03:57:53.963Z,97811.00
2023-02-05T04:00:34.504Z,97819.34
2023-02-05T04:03:03.330Z,97819.38
2023-02-05T04:05:32.244Z,97816.00
2023-02-05T04:08:01.019Z,97814.41
2023-02-05T04:10:32.772Z,97807.69
2023-02-05T04:13:01.153Z,97807.69
2023-02-05T04:15:30.108Z,97810.22
2023-02-05T04:18:00.193Z,97812.72
2023-02-05T04:20:28.811Z,97804.38
2023-02-05T04:22:57.441Z,97802.72
2023-02-05T04:25:25.952Z,97815.28
2023-02-05T04:27:55.667Z,97806.06
2023-02-05T04:30:24.556Z,97811.09
2023-02-05T04:32:53.180Z,97806.94
2023-02-05T04:35:32.671Z,97809.47
2023-02-05T04:38:01.381Z,97807.78
2023-02-05T04:40:30.237Z,97811.97
2023-02-05T04:42:58.805Z,97813.66
2023-02-05T04:45:31.465Z,97809.44
2023-02-05T04:48:00.681Z,97810.28
2023-02-05T04:50:30.845Z,97814.47
2023-02-05T04:53:00.339Z,97816.97
2023-02-05T04:55:32.576Z,97812.78
2023-02-05T04:58:01.201Z,97811.94
2023-02-05T05:00:30.927Z,97816.16
2023-02-05T05:02:59.988Z,97818.63
2023-02-05T05:05:31.251Z,97824.50
2023-02-05T05:08:02.263Z,97823.66
2023-02-05T05:10:33.587Z,97821.16
2023-02-05T05:13:02.209Z,97823.63
2023-02-05T05:15:30.795Z,97819.47
2023-02-05T05:17:59.688Z,97817.78
2023-02-05T05:20:30.043Z,97820.28
2023-02-05T05:22:58.528Z,97826.09
2023-02-05T05:25:32.123Z,97831.09
2023-02-05T05:28:02.137Z,97833.59
2023-02-05T05:30:30.941Z,97826.88
2023-02-05T05:32:59.453Z,97823.53
2023-02-05T05:35:28.197Z,97826.03
2023-02-05T05:38:03.017Z,97826.03
2023-02-05T05:40:51.317Z,97830.19
2023-02-05T05:43:38.793Z,97840.16
2023-02-05T05:46:08.520Z,97828.44
2023-02-05T05:48:37.103Z,97826.72
2023-02-05T05:51:06.038Z,97829.19
2023-02-05T05:53:34.895Z,97833.31
2023-02-05T05:56:05.121Z,97783.09
2023-02-05T05:58:34.744Z,97822.44
2023-02-05T06:01:03.364Z,97818.22
2023-02-05T06:03:32.216Z,97822.41
2023-02-05T06:06:02.682Z,97819.06
2023-02-05T06:08:33.715Z,97833.22
2023-02-05T06:11:02.316Z,97831.53
2023-02-05T06:13:32.624Z,97824.78
2023-02-05T06:16:01.163Z,97826.47
2023-02-05T06:18:31.452Z,97819.78
2023-02-05T06:20:59.885Z,97817.25
2023-02-05T06:23:28.737Z,97822.28
2023-02-05T06:25:57.357Z,97805.50
2023-02-05T06:28:25.924Z,97816.38
2023-02-05T06:30:55.909Z,97829.72
2023-02-05T06:33:24.648Z,97823.84
2023-02-05T06:35:55.539Z,97823.84
2023-02-05T06:38:24.296Z,97820.47
2023-02-05T06:44:39.122Z,97815.53
2023-02-05T06:47:09.010Z,97813.06
2023-02-05T06:49:37.520Z,97813.13
2023-02-05T06:52:06.603Z,97819.84
2023-02-05T06:54:35.471Z,97819.88
2023-02-05T06:57:04.315Z,97814.88
2023-02-05T06:59:32.872Z,97815.72
2023-02-05T07:02:01.815Z,97825.78
2023-02-05T07:04:32.342Z,97819.13
2023-02-05T07:07:03.345Z,97821.66
2023-02-05T07:09:32.156Z,97815.03
2023-02-05T07:12:00.693Z,97819.25
2023-02-05T07:14:31.716Z,97817.59
2023-02-05T07:17:00.630Z,97822.63
2023-02-05T07:19:29.603Z,97823.50
2023-02-05T07:22:01.042Z,97826.03
2023-02-05T07:24:32.028Z,97826.06
2023-02-05T07:27:01.034Z,97841.16
2023-02-05T07:29:29.850Z,97837.00
2023-02-05T07:31:58.696Z,97837.84
2023-02-05T07:34:27.598Z,97844.59
2023-02-05T07:36:56.034Z,97840.44
2023-02-05T07:39:30.295Z,97843.75
2023-02-05T07:41:58.992Z,97852.97
2023-02-05T07:44:27.601Z,97859.66
2023-02-05T07:46:56.011Z,97857.97
2023-02-05T07:49:27.494Z,97852.97
2023-02-05T07:51:56.120Z,97849.59
2023-02-05T07:54:26.079Z,97853.75
2023-02-05T07:56:55.554Z,97855.34
2023-02-05T07:59:24.697Z,97857.84
2023-02-05T08:01:53.274Z,97849.44
2023-02-05T08:04:21.816Z,97852.69
2023-02-05T08:06:50.598Z,97850.13
2023-02-05T08:09:19.218Z,97864.25
2023-02-05T08:11:48.757Z,97860.81
2023-02-05T08:14:17.557Z,97859.78
2023-02-05T08:16:46.137Z,97849.81
2023-02-05T08:19:16.681Z,97850.59
2023-02-05T08:21:46.378Z,97849.19
2023-02-05T08:24:16.973Z,97845.06
2023-02-05T08:26:45.384Z,97833.72
2023-02-05T08:29:15.727Z,97840.88
2023-02-05T08:31:44.741Z,97845.63
2023-02-05T08:34:13.301Z,97840.53
2023-02-05T08:36:42.323Z,97841.84
2023-02-05T08:39:11.116Z,97830.41
2023-02-05T08:41:39.742Z,97832.81
2023-02-05T08:44:08.579Z,97830.56
2023-02-05T08:46:49.793Z,97823.44
2023-02-05T08:49:19.466Z,97812.78
2023-02-05T08:51:48.362Z,97818.63
2023-02-05T08:54:19.478Z,97819.44
2023-02-05T08:56:56.164Z,97823.44
2023-02-05T08:59:27.283Z,97825.72
2023-02-05T09:02:17.410Z,97824.34
2023-02-05T09:04:50.232Z,97817.69
2023-02-05T09:07:19.035Z,97801.06
2023-02-05T09:09:48.325Z,97803.41
2023-02-05T09:12:16.943Z,97810.09
2023-02-05T09:14:45.726Z,97811.81
2023-02-05T09:17:16.009Z,97807.72
2023-02-05T09:19:44.755Z,97810.19
2023-02-05T09:22:13.302Z,97813.72
2023-02-05T09:24:41.876Z,97812.25
2023-02-05T09:27:14.393Z,97813.31
2023-02-05T09:29:43.162Z,97812.22
2023-02-05T09:32:12.010Z,97805.03
2023-02-05T09:34:44.314Z,97809.72
2023-02-05T09:37:12.908Z,97807.53
2023-02-05T09:40:19.011Z,97803.28
2023-02-05T09:42:45.447Z,97811.47
2023-02-05T09:45:28.357Z,97804.22
2023-02-05T09:48:04.413Z,97802.56
2023-02-05T09:50:38.341Z,97797.53
2023-02-05T09:53:08.905Z,97809.06
2023-02-05T09:55:40.285Z,97796.03
2023-02-05T09:58:10.099Z,97800.31
2023-02-05T10:00:46.448Z,97752.16
2023-02-05T10:03:23.483Z,97776.47
2023-02-05T10:06:06.231Z,97764.69
2023-02-05T10:08:42.018Z,97762.22
2023-02-05T10:11:19.367Z,97767.25
2023-02-05T10:14:02.948Z,97772.34
2023-02-05T10:16:42.834Z,97769.38
2023-02-05T10:19:25.420Z,97762.22
2023-02-05T10:22:05.721Z,97772.19
2023-02-05T10:24:46.803Z,97762.41
2023-02-05T10:27:19.409Z,97763.16
2023-02-05T10:29:56.858Z,97756.53
2023-02-05T10:32:26.694Z,97748.41
2023-02-05T10:34:59.734Z,97750.06
2023-02-05T10:37:37.392Z,97739.03
2023-02-05T10:40:18.872Z,97739.56
2023-02-05T10:42:51.991Z,97731.31
2023-02-05T10:45:22.879Z,97735.28
2023-02-05T10:48:02.502Z,97722.47
2023-02-05T10:50:38.271Z,97727.28
2023-02-05T10:53:08.392Z,97726.41
2023-02-05T10:55:38.145Z,97724.00
2023-02-05T10:58:26.089Z,97713.22
2023-02-05T11:00:54.959Z,97710.00
2023-02-05T11:03:24.165Z,97710.78
2023-02-05T11:05:52.827Z,97698.00
2023-02-05T11:08:39.546Z,97700.06
2023-02-05T11:11:19.797Z,97695.34
2023-02-05T11:13:52.609Z,97691.56
2023-02-05T11:16:21.460Z,97694.88
2023-02-05T11:18:58.843Z,97694.06
2023-02-05T11:21:49.447Z,97700.13
2023-02-05T11:24:30.227Z,97703.31
2023-02-05T11:27:28.189Z,97696.38
2023-02-05T11:29:59.217Z,97685.88
2023-02-05T11:32:36.907Z,97679.94
2023-02-05T11:35:19.700Z,97668.78
2023-02-05T11:37:50.252Z,97675.31
2023-02-05T11:40:29.002Z,97674.13
2023-02-05T11:43:02.311Z,97670.25
2023-02-05T11:45:36.203Z,97668.72
2023-02-05T11:48:32.622Z,97671.63
2023-02-05T11:51:06.595Z,97681.97
2023-02-05T11:53:37.440Z,97682.88
2023-02-05T11:56:12.084Z,97690.38
2023-02-05T11:58:40.823Z,97686.78
2023-02-05T12:01:24.218Z,97686.81
2023-02-05T12:04:00.413Z,97681.78
2023-02-05T12:06:33.921Z,97677.66
2023-02-05T12:09:02.825Z,97648.66
2023-02-05T12:12:17.232Z,97652.91
2023-02-05T12:14:50.897Z,97644.78
2023-02-05T12:17:30.414Z,97646.41
2023-02-05T12:20:11.625Z,97642.78
2023-02-05T12:22:58.517Z,97636.22
2023-02-05T12:25:30.371Z,97640.97
2023-02-05T12:28:11.461Z,97630.34
2023-02-05T12:30:52.754Z,97628.19
2023-02-05T12:33:41.573Z,97621.66
2023-02-05T12:36:24.092Z,97629.88
2023-02-05T12:39:21.432Z,97622.47
2023-02-05T12:41:55.047Z,97609.81
2023-02-05T12:44:36.556Z,97613.81
2023-02-05T12:47:14.334Z,97610.38
2023-02-05T12:49:57.990Z,97601.78
2023-02-05T12:52:42.429Z,97598.31
2023-02-05T12:55:21.441Z,97599.31
2023-02-05T12:57:55.066Z,97601.63
2023-02-05T13:00:29.626Z,97595.56
2023-02-05T13:03:06.031Z,97599.84
2023-02-05T13:05:36.502Z,97605.66
2023-02-05T13:08:08.846Z,97599.72
2023-02-05T13:10:45.338Z,97596.34
2023-02-05T13:13:17.766Z,97599.41
2023-02-05T13:15:59.993Z,97588.66
2023-02-05T13:18:31.507Z,97592.91
2023-02-05T13:21:20.258Z,97596.69
2023-02-05T13:24:07.022Z,97599.88
2023-02-05T13:26:57.579Z,97595.38
2023-02-05T13:29:30.576Z,97595.31
2023-02-05T13:32:15.366Z,97601.78
2023-02-05T13:34:44.954Z,97611.91
2023-02-05T13:37:29.834Z,97611.31
2023-02-05T13:40:28.925Z,97605.78
2023-02-05T13:43:41.946Z,97603.28
2023-02-05T13:46:25.845Z,97599.75
2023-02-05T13:49:36.952Z,97609.78
2023-02-05T13:52:20.009Z,97606.97
2023-02-05T13:55:14.559Z,97608.59
2023-02-05T13:58:20.841Z,97614.34
2023-02-05T14:01:01.042Z,97620.31
2023-02-05T14:03:38.485Z,97609.28
2023-02-05T14:06:29.814Z,97615.72
2023-02-05T14:09:19.429Z,97608.91
2023-02-05T14:11:54.781Z,97615.91
2023-02-05T14:14:36.556Z,97615.97
2023-02-05T14:17:43.667Z,97624.41
2023-02-05T14:20:34.605Z,97631.38
2023-02-05T14:23:05.133Z,97630.41
2023-02-05T14:26:11.942Z,97632.75
2023-02-05T14:28:51.855Z,97637.63
2023-02-05T14:31:55.573Z,97638.19
2023-02-05T14:34:48.881Z,97632.38
2023-02-05T14:37:26.642Z,97632.06
2023-02-05T14:39:55.283Z,97631.81
2023-02-05T14:42:29.545Z,97637.38
2023-02-05T14:45:00.778Z,97639.56
2023-02-05T14:47:33.337Z,97638.44
2023-02-05T14:50:05.492Z,97637.31
2023-02-05T14:52:36.119Z,97633.69
2023-02-05T14:55:08.738Z,97635.88
2023-02-05T14:57:49.319Z,97636.78
2023-02-05T15:00:35.381Z,97628.41
2023-02-05T15:03:24.531Z,97625.56
2023-02-05T15:06:04.888Z,97632.69
2023-02-05T15:08:47.531Z,97639.44
2023-02-05T15:11:30.456Z,97645.53
2023-02-05T15:14:36.954Z,97650.41
2023-02-05T15:17:43.819Z,97656.44
2023-02-05T15:20:30.932Z,97659.84
2023-02-05T15:23:07.860Z,97663.97
2023-02-05T15:25:42.692Z,97659.44
2023-02-05T15:28:48.710Z,97660.81
2023-02-05T15:31:23.944Z,97658.72
2023-02-05T15:33:59.934Z,97666.66
2023-02-05T15:36:38.247Z,97670.13
2023-02-05T15:39:35.377Z,97662.69
2023-02-05T15:42:05.451Z,97619.63
2023-02-05T15:44:35.668Z,97658.13
2023-02-05T15:47:09.868Z,97660.94
2023-02-05T15:49:42.209Z,97665.59
2023-02-05T15:52:18.392Z,97671.22
2023-02-05T15:54:47.102Z,97677.66
2023-02-05T15:57:20.632Z,97677.16
2023-02-05T15:59:49.290Z,97673.34
2023-02-05T16:02:21.378Z,97680.41
2023-02-05T16:05:09.843Z,97687.22
2023-02-05T16:07:42.632Z,97690.56
2023-02-05T16:10:20.863Z,97707.41
2023-02-05T16:12:59.986Z,97697.53
2023-02-05T16:15:35.461Z,97699.41
2023-02-05T16:18:09.488Z,97707.88
2023-02-05T16:20:45.081Z,97708.00
2023-02-05T16:23:21.303Z,97703.88
2023-02-05T16:25:53.449Z,97704.81
2023-02-05T16:28:24.390Z,97704.03
2023-02-05T16:30:56.828Z,97694.06
2023-02-05T16:33:32.672Z,97699.19
2023-02-05T16:36:03.126Z,97698.41
2023-02-05T16:38:31.850Z,97685.84
2023-02-05T16:41:02.171Z,97671.75
2023-02-05T16:43:33.419Z,97693.38
2023-02-05T16:46:34.144Z,97708.44
2023-02-05T16:49:05.046Z,97694.16
2023-02-05T16:51:37.525Z,97704.22
2023-02-05T16:54:28.467Z,97710.94
2023-02-05T16:57:00.977Z,97712.69
2023-02-05T17:00:30.737Z,97721.97
2023-02-05T17:03:01.160Z,97724.47
2023-02-05T17:05:34.377Z,97723.66
2023-02-05T17:08:07.068Z,97724.53
2023-02-05T17:10:50.077Z,97726.19
2023-02-05T17:13:29.553Z,97726.28
2023-02-05T17:15:58.459Z,97730.44
2023-02-05T17:18:32.570Z,97736.34
2023-02-05T17:21:24.237Z,97741.38
2023-02-05T17:23:53.180Z,97749.81
2023-02-05T17:26:22.465Z,97748.16
2023-02-05T17:28:55.690Z,97734.75
2023-02-05T17:31:26.675Z,97750.69
2023-02-05T17:33:56.341Z,97741.47
2023-02-05T17:36:34.916Z,97736.50
2023-02-05T17:39:05.870Z,97733.19
2023-02-05T17:41:55.598Z,97730.69
2023-02-05T17:44:24.195Z,97734.13
2023-02-05T17:46:54.390Z,97729.94
2023-02-05T17:49:23.231Z,97737.53
2023-02-05T17:51:53.184Z,97735.00
2023-02-05T17:55:22.676Z,97735.03
2023-02-05T17:57:51.207Z,97744.22
2023-02-05T18:00:21.760Z,97743.38
2023-02-05T18:02:50.725Z,97740.88
2023-02-05T18:05:20.628Z,97737.53
2023-02-05T18:07:52.588Z,97736.69
2023-02-05T18:10:23.831Z,97739.19
2023-02-05T18:12:52.724Z,97741.69
2023-02-05T18:15:23.588Z,97745.03
2023-02-05T18:17:52.381Z,97740.03
2023-02-05T18:20:21.568Z,97746.72
2023-02-05T18:22:52.070Z,97738.38
2023-02-05T18:25:21.132Z,97742.53
2023-02-05T18:27:50.448Z,97744.19
2023-02-05T18:30:19.008Z,97749.19
2023-02-05T18:32:48.180Z,97748.31
2023-02-05T18:35:17.059Z,97753.31
2023-02-05T18:37:46.388Z,97749.16
2023-02-05T18:40:16.700Z,97752.47
2023-02-05T18:42:47.301Z,97756.66
2023-02-05T18:45:17.180Z,97760.78
2023-02-05T18:47:46.771Z,97758.28
2023-02-05T18:50:16.601Z,97759.94
2023-02-05T18:52:45.746Z,97774.97
2023-02-05T18:55:18.667Z,97770.84
2023-02-05T18:57:52.960Z,97780.03
2023-02-05T19:00:25.046Z,97784.22
2023-02-05T19:02:56.361Z,97783.38
2023-02-05T19:05:27.091Z,97786.69
2023-02-05T19:08:01.994Z,97730.59
2023-02-05T19:10:34.473Z,97788.31
2023-02-05T19:13:03.521Z,97791.66
2023-02-05T19:15:33.146Z,97799.09
2023-02-05T19:18:01.978Z,97794.00
2023-02-05T19:20:35.038Z,97795.63
2023-02-05T19:23:07.171Z,97805.69
2023-02-05T19:25:42.478Z,97808.19
2023-02-05T19:28:11.450Z,97805.75
2023-02-05T19:30:39.905Z,97799.91
2023-02-05T19:33:08.535Z,97804.97
2023-02-05T19:35:37.342Z,97800.75
2023-02-05T19:38:06.206Z,97801.53
2023-02-05T19:40:36.566Z,97794.81
2023-02-05T19:43:07.337Z,97800.56
2023-02-05T19:45:38.180Z,97792.16
2023-02-05T19:48:07.339Z,97802.00
2023-02-05T19:50:45.131Z,97800.34
2023-02-05T19:53:14.348Z,97816.88
2023-02-05T19:55:45.860Z,97808.44
2023-02-05T19:58:18.456Z,97817.44
2023-02-05T20:00:50.106Z,97811.56
2023-02-05T20:03:30.432Z,97812.31
2023-02-05T20:06:01.249Z,97799.69
2023-02-05T20:08:32.445Z,97805.47
2023-02-05T20:11:03.990Z,97809.56
2023-02-05T20:13:37.176Z,97807.78
2023-02-05T20:16:08.082Z,97804.38
2023-02-05T20:18:36.870Z,97813.53
2023-02-05T20:21:07.154Z,97820.16
2023-02-05T20:23:35.891Z,97820.09
2023-02-05T20:26:08.275Z,97828.44
2023-02-05T20:29:00.153Z,97823.38
2023-02-05T20:31:34.851Z,97826.72
2023-02-05T20:34:04.598Z,97836.66
2023-02-05T20:36:38.430Z,97836.59
2023-02-05T20:39:09.253Z,97842.44
2023-02-05T20:41:38.043Z,97839.03
2023-02-05T20:44:08.584Z,97835.50
2023-02-05T20:47:02.268Z,97849.88
2023-02-05T20:49:31.260Z,97849.06
2023-02-05T20:52:01.844Z,97855.75
2023-02-05T20:54:33.295Z,97855.66
2023-02-05T20:57:01.936Z,97861.31
2023-02-05T20:59:38.692Z,97863.78
2023-02-05T21:02:11.384Z,97864.53
2023-02-05T21:04:40.151Z,97876.31
2023-02-05T21:07:08.841Z,97873.88
2023-02-05T21:09:39.379Z,97891.31
2023-02-05T21:12:10.139Z,97893.63
2023-02-05T21:14:40.993Z,97903.63
2023-02-05T21:17:10.743Z,97892.94
2023-02-05T21:20:29.045Z,97900.53
2023-02-05T21:23:14.663Z,97913.75
2023-02-05T21:25:43.508Z,97908.63
2023-02-05T21:28:12.750Z,97909.41
2023-02-05T21:30:51.491Z,97903.38
2023-02-05T21:33:20.153Z,97922.25
2023-02-05T21:35:48.891Z,97921.28
2023-02-05T21:38:17.556Z,97931.25
2023-02-05T21:40:46.608Z,97937.16
2023-02-05T21:43:18.054Z,97924.81
2023-02-05T21:45:47.924Z,97920.63
2023-02-05T21:48:16.488Z,97928.84
2023-02-05T21:50:44.893Z,97932.25
2023-02-05T21:53:16.382Z,97928.91
2023-02-05T21:55:45.267Z,97925.44
2023-02-05T21:58:13.860Z,97931.81
2023-02-05T22:00:45.273Z,97941.00
2023-02-05T22:03:15.630Z,97951.06
2023-02-05T22:05:47.315Z,97952.00
2023-02-05T22:08:16.197Z,97947.09
2023-02-05T22:10:45.099Z,97945.50
2023-02-05T22:13:13.892Z,97946.28
2023-02-05T22:15:44.772Z,97952.75
2023-02-05T22:18:14.776Z,97954.34
2023-02-05T22:20:44.529Z,97963.34
2023-02-05T22:23:13.505Z,97975.00
2023-02-05T22:25:47.690Z,97967.34
2023-02-05T22:28:16.272Z,97973.72
2023-02-05T22:30:47.728Z,97970.22
2023-02-05T22:33:20.792Z,97965.22
2023-02-05T22:35:53.388Z,97956.16
2023-02-05T22:38:21.957Z,97965.34
2023-02-05T22:40:50.581Z,97964.44
2023-02-05T22:43:19.138Z,97972.03
2023-02-05T22:49:41.031Z,97961.84
2023-02-05T22:52:09.675Z,97969.34
2023-02-05T22:54:38.262Z,97964.41
2023-02-05T22:57:11.393Z,97963.50
2023-02-05T22:59:40.060Z,97967.53
2023-02-05T23:02:17.377Z,97978.94
2023-02-05T23:04:47.667Z,97977.94
2023-02-05T23:07:16.488Z,97980.38
2023-02-05T23:09:46.261Z,97981.28
2023-02-05T23:12:15.036Z,97975.59
2023-02-05T23:14:45.653Z,97970.47
2023-02-05T23:17:14.381Z,97969.72
2023-02-05T23:19:43.060Z,97977.19
2023-02-05T23:22:12.959Z,97979.00
2023-02-05T23:24:42.110Z,97977.38
2023-02-05T23:27:10.857Z,97975.69
2023-02-05T23:29:39.835Z,97981.31
2023-02-05T23:32:15.085Z,97981.97
2023-02-05T23:34:43.905Z,97987.47
2023-02-05T23:37:14.020Z,97986.53
2023-02-05T23:39:43.563Z,97992.31
2023-02-05T23:42:12.170Z,97992.97
2023-02-05T23:44:40.741Z,97987.00
2023-02-05T23:47:09.607Z,97987.09
2023-02-05T23:49:38.277Z,97984.66
2023-02-05T23:52:32.968Z,97979.59
2023-02-05T23:55:01.793Z,97979.59
2023-02-05T23:57:30.675Z,97988.56
2023-02-05T23:59:59.458Z,97987.50
